Atkinsons Mills, Pennsylvania
Current Conditions -  °F | °C
As of 5:35 AM on Monday 22 Dec 2014 (Local Time) from KUNV Reporting Station
Haze Haze  
Wind Chill: 19°   Ceiling: Unl
Heat Index: 19°   Visibility: 5mi
Dew Point: 17°   Wind: 0mph
Humidity: 94%   Direction: NA
Pressure: 30.22"   Gusts: NA
Location:  40.5138°N, 77.7384°W
Report Text: KUNV 221035Z AUTO 00000KT 5SM BR CLR M07/M08 A3022 RMK AO2 T10741082
Loading
Personal Weather Stations






























Interactive Weather Map New forecast layout! Learn more

10-Day Weather Forecast

Advertisements
Track Severe Weather on mobile